createdAt,value
2023-01-30T00:01:21.954Z,100.00
2023-01-30T00:03:48.738Z,100.00
2023-01-30T00:06:15.559Z,100.00
2023-01-30T00:08:42.226Z,100.00
2023-01-30T00:11:11.900Z,100.00
2023-01-30T00:13:39.444Z,100.00
2023-01-30T00:16:06.910Z,100.00
2023-01-30T00:18:33.588Z,100.00
2023-01-30T00:21:02.965Z,100.00
2023-01-30T00:23:31.298Z,100.00
2023-01-30T00:25:58.469Z,100.00
2023-01-30T00:28:25.645Z,100.00
2023-01-30T00:30:53.762Z,100.00
2023-01-30T00:33:24.978Z,100.00
2023-01-30T00:35:57.456Z,100.00
2023-01-30T00:38:25.311Z,100.00
2023-01-30T00:40:52.331Z,100.00
2023-01-30T00:43:40.968Z,100.00
2023-01-30T00:46:52.290Z,100.00
2023-01-30T00:49:19.877Z,100.00
2023-01-30T00:51:47.648Z,100.00
2023-01-30T00:54:14.572Z,100.00
2023-01-30T00:56:41.866Z,100.00
2023-01-30T00:59:08.635Z,100.00
2023-01-30T01:01:35.332Z,100.00
2023-01-30T01:04:02.032Z,100.00
2023-01-30T01:06:28.676Z,100.00
2023-01-30T01:08:56.661Z,100.00
2023-01-30T01:11:26.129Z,100.00
2023-01-30T01:14:00.360Z,100.00
2023-01-30T01:16:29.287Z,100.00
2023-01-30T01:18:58.306Z,100.00
2023-01-30T01:21:25.495Z,100.00
2023-01-30T01:23:56.529Z,100.00
2023-01-30T01:26:23.330Z,100.00
2023-01-30T01:28:54.173Z,100.00
2023-01-30T01:31:24.549Z,100.00
2023-01-30T01:33:52.343Z,100.00
2023-01-30T01:36:42.379Z,100.00
2023-01-30T01:39:05.676Z,100.00
2023-01-30T01:41:32.292Z,100.00
2023-01-30T01:44:04.367Z,100.00
2023-01-30T01:46:36.033Z,100.00
2023-01-30T01:49:07.973Z,100.00
2023-01-30T01:52:06.815Z,100.00
2023-01-30T01:54:40.028Z,100.00
2023-01-30T01:57:12.039Z,100.00
2023-01-30T01:59:45.327Z,100.00
2023-01-30T02:02:14.693Z,100.00
2023-01-30T02:05:06.466Z,100.00
2023-01-30T02:07:43.727Z,100.00
2023-01-30T02:10:18.050Z,100.00
2023-01-30T02:12:48.940Z,100.00
2023-01-30T02:15:17.297Z,100.00
2023-01-30T02:17:44.108Z,100.00
2023-01-30T02:20:19.904Z,100.00
2023-01-30T02:23:04.737Z,100.00
2023-01-30T02:25:56.513Z,100.00
2023-01-30T02:29:00.721Z,100.00
2023-01-30T02:32:01.523Z,100.00
2023-01-30T02:34:38.642Z,100.00
2023-01-30T02:37:40.096Z,100.00
2023-01-30T02:40:26.553Z,100.00
2023-01-30T02:43:16.882Z,100.00
2023-01-30T02:45:52.978Z,100.00
2023-01-30T02:48:33.115Z,100.00
2023-01-30T02:51:10.476Z,100.00
2023-01-30T02:53:38.273Z,100.00
2023-01-30T02:56:06.448Z,100.00
2023-01-30T02:58:45.882Z,100.00
2023-01-30T03:01:34.430Z,100.00
2023-01-30T03:04:27.377Z,100.00
2023-01-30T03:07:16.730Z,100.00
2023-01-30T03:10:28.611Z,100.00
2023-01-30T03:13:19.063Z,100.00
2023-01-30T03:15:54.112Z,100.00
2023-01-30T03:18:22.608Z,100.00
2023-01-30T03:20:49.953Z,100.00
2023-01-30T03:23:16.574Z,100.00
2023-01-30T03:25:46.089Z,100.00
2023-01-30T03:28:16.823Z,100.00
2023-01-30T03:30:44.321Z,100.00
2023-01-30T03:33:11.096Z,100.00
2023-01-30T03:35:40.218Z,100.00
2023-01-30T03:38:07.517Z,100.00
2023-01-30T03:40:35.057Z,100.00
2023-01-30T03:43:02.392Z,100.00
2023-01-30T03:45:29.171Z,100.00
2023-01-30T03:47:55.851Z,100.00
2023-01-30T03:50:22.434Z,100.00
2023-01-30T03:52:49.811Z,100.00
2023-01-30T03:55:19.817Z,100.00
2023-01-30T03:57:46.770Z,100.00
2023-01-30T04:00:15.427Z,100.00
2023-01-30T04:02:48.299Z,100.00
2023-01-30T04:05:17.926Z,100.00
2023-01-30T04:07:51.700Z,100.00
2023-01-30T04:10:22.609Z,100.00
2023-01-30T04:12:49.782Z,100.00
2023-01-30T04:15:17.576Z,100.00
2023-01-30T04:17:51.078Z,100.00
2023-01-30T04:20:36.756Z,100.00
2023-01-30T04:23:03.380Z,100.00
2023-01-30T04:25:30.750Z,100.00
2023-01-30T04:27:58.036Z,100.00
2023-01-30T04:30:29.799Z,100.00
2023-01-30T04:33:19.167Z,100.00
2023-01-30T04:35:57.751Z,100.00
2023-01-30T04:38:26.879Z,100.00
2023-01-30T04:40:55.778Z,100.00
2023-01-30T04:43:24.768Z,100.00
2023-01-30T04:46:10.222Z,100.00
2023-01-30T04:48:36.953Z,100.00
2023-01-30T04:51:03.715Z,100.00
2023-01-30T04:53:30.473Z,100.00
2023-01-30T04:55:57.482Z,100.00
2023-01-30T04:58:24.340Z,100.00
2023-01-30T05:00:51.232Z,100.00
2023-01-30T05:03:18.126Z,100.00
2023-01-30T05:05:48.896Z,100.00
2023-01-30T05:08:16.356Z,100.00
2023-01-30T05:10:43.062Z,100.00
2023-01-30T05:13:09.686Z,100.00
2023-01-30T05:15:36.274Z,100.00
2023-01-30T05:18:03.345Z,100.00
2023-01-30T05:20:30.042Z,100.00
2023-01-30T05:22:56.814Z,100.00
2023-01-30T05:25:23.602Z,100.00
2023-01-30T05:27:51.480Z,100.00
2023-01-30T05:30:18.167Z,100.00
2023-01-30T05:32:44.741Z,100.00
2023-01-30T05:35:11.736Z,100.00
2023-01-30T05:37:38.439Z,100.00
2023-01-30T05:40:06.297Z,100.00
2023-01-30T05:42:33.149Z,100.00
2023-01-30T05:45:00.000Z,100.00
2023-01-30T05:47:27.078Z,100.00
2023-01-30T05:49:53.972Z,100.00
2023-01-30T05:52:20.886Z,100.00
2023-01-30T05:54:47.468Z,100.00
2023-01-30T05:57:14.097Z,100.00
2023-01-30T05:59:41.098Z,100.00
2023-01-30T06:02:08.873Z,100.00
2023-01-30T06:04:36.771Z,100.00
2023-01-30T06:07:03.420Z,100.00
2023-01-30T06:09:30.056Z,100.00
2023-01-30T06:11:56.670Z,100.00
2023-01-30T06:14:23.489Z,100.00
2023-01-30T06:16:50.557Z,100.00
2023-01-30T06:19:17.471Z,100.00
2023-01-30T06:21:44.216Z,100.00
2023-01-30T06:24:13.479Z,100.00
2023-01-30T06:26:40.178Z,100.00
2023-01-30T06:29:06.869Z,100.00
2023-01-30T06:31:33.755Z,100.00
2023-01-30T06:34:00.765Z,100.00
2023-01-30T06:36:27.462Z,100.00
2023-01-30T06:38:54.208Z,99.48
2023-01-30T06:41:22.285Z,100.00
2023-01-30T06:43:48.989Z,99.87
2023-01-30T06:46:15.766Z,99.77
2023-01-30T06:48:42.763Z,100.00
2023-01-30T06:51:09.537Z,98.18
2023-01-30T06:53:36.106Z,98.07
2023-01-30T06:56:02.873Z,98.95
2023-01-30T06:58:29.556Z,98.41
2023-01-30T07:00:56.559Z,98.15
2023-01-30T07:03:23.777Z,98.49
2023-01-30T07:05:50.884Z,98.25
2023-01-30T07:08:17.655Z,97.69
2023-01-30T07:10:44.887Z,98.37
2023-01-30T07:13:12.526Z,98.65
2023-01-30T07:15:39.272Z,99.33
2023-01-30T07:18:05.966Z,100.00
2023-01-30T07:20:33.250Z,99.59
2023-01-30T07:22:59.996Z,99.19
2023-01-30T07:25:28.296Z,98.97
2023-01-30T07:27:57.658Z,98.06
2023-01-30T07:30:25.075Z,98.29
2023-01-30T07:32:52.966Z,97.28
2023-01-30T07:35:21.105Z,97.40
2023-01-30T07:37:48.921Z,97.23
2023-01-30T07:40:16.565Z,97.64
2023-01-30T07:42:43.369Z,97.86
2023-01-30T07:45:11.306Z,97.05
2023-01-30T07:47:38.035Z,96.23
2023-01-30T07:50:05.373Z,96.33
2023-01-30T07:52:32.700Z,96.07
2023-01-30T07:55:01.473Z,96.25
2023-01-30T07:57:28.327Z,95.23
2023-01-30T07:59:55.196Z,96.25
2023-01-30T08:02:23.078Z,95.67
2023-01-30T08:04:49.800Z,95.06
2023-01-30T08:07:17.749Z,94.79
2023-01-30T08:09:44.319Z,93.84
2023-01-30T08:12:11.114Z,94.15
2023-01-30T08:14:37.910Z,94.89
2023-01-30T08:17:04.985Z,92.91
2023-01-30T08:19:31.665Z,92.92
2023-01-30T08:21:59.565Z,91.68
2023-01-30T08:24:26.368Z,90.45
2023-01-30T08:26:52.899Z,90.30
2023-01-30T08:29:19.529Z,88.77
2023-01-30T08:31:46.228Z,89.63
2023-01-30T08:34:13.037Z,90.43
2023-01-30T08:36:39.699Z,89.34
2023-01-30T08:39:06.872Z,89.94
2023-01-30T08:41:33.600Z,89.27
2023-01-30T08:44:01.513Z,88.37
2023-01-30T08:46:28.269Z,88.04
2023-01-30T08:48:54.861Z,89.00
2023-01-30T08:51:22.124Z,88.67
2023-01-30T08:53:48.772Z,88.09
2023-01-30T08:56:15.307Z,88.03
2023-01-30T08:58:43.853Z,87.49
2023-01-30T09:01:11.144Z,87.77
2023-01-30T09:03:38.157Z,87.85
2023-01-30T09:06:05.161Z,87.63
2023-01-30T09:08:31.951Z,86.24
2023-01-30T09:11:04.505Z,86.96
2023-01-30T09:13:32.467Z,85.95
2023-01-30T09:15:59.492Z,86.40
2023-01-30T09:18:26.400Z,85.73
2023-01-30T09:20:53.837Z,86.41
2023-01-30T09:23:20.769Z,85.24
2023-01-30T09:25:47.692Z,84.53
2023-01-30T09:28:14.392Z,85.17
2023-01-30T09:30:43.166Z,84.85
2023-01-30T09:33:09.847Z,85.12
2023-01-30T09:35:36.446Z,85.38
2023-01-30T09:38:05.103Z,85.03
2023-01-30T09:40:32.815Z,84.55
2023-01-30T09:43:18.352Z,82.77
2023-01-30T09:46:08.459Z,82.77
2023-01-30T09:48:43.918Z,81.78
2023-01-30T09:51:31.836Z,82.73
2023-01-30T09:54:11.274Z,81.61
2023-01-30T09:56:37.922Z,81.48
2023-01-30T09:59:06.828Z,81.24
2023-01-30T10:02:01.582Z,80.07
2023-01-30T10:04:39.076Z,80.25
2023-01-30T10:07:13.092Z,80.18
2023-01-30T10:09:50.958Z,78.98
2023-01-30T10:12:23.697Z,78.21
2023-01-30T10:15:17.817Z,77.39
2023-01-30T10:17:56.660Z,76.96
2023-01-30T10:20:41.522Z,76.03
2023-01-30T10:23:24.553Z,75.88
2023-01-30T10:25:55.972Z,77.21
2023-01-30T10:29:06.202Z,77.06
2023-01-30T10:32:02.440Z,77.02
2023-01-30T10:34:42.301Z,75.82
2023-01-30T10:37:15.155Z,76.31
2023-01-30T10:39:55.272Z,76.88
2023-01-30T10:42:38.985Z,77.38
2023-01-30T10:45:18.046Z,77.50
2023-01-30T10:48:06.489Z,76.54
2023-01-30T10:50:56.594Z,76.27
2023-01-30T10:53:34.390Z,75.06
2023-01-30T10:56:10.328Z,75.68
2023-01-30T10:58:44.330Z,76.01
2023-01-30T11:01:23.781Z,75.44
2023-01-30T11:03:56.864Z,76.54
2023-01-30T11:06:25.522Z,75.77
2023-01-30T11:08:54.044Z,75.46
2023-01-30T11:11:26.695Z,75.44
2023-01-30T11:14:08.770Z,75.59
2023-01-30T11:16:52.887Z,74.67
2023-01-30T11:19:23.827Z,73.60
2023-01-30T11:21:53.721Z,73.46
2023-01-30T11:24:30.671Z,74.31
2023-01-30T11:27:11.317Z,74.60
2023-01-30T11:29:39.618Z,74.83
2023-01-30T11:32:13.212Z,73.40
2023-01-30T11:34:42.451Z,72.77
2023-01-30T11:37:33.841Z,72.25
2023-01-30T11:40:23.957Z,73.36
2023-01-30T11:43:05.470Z,72.92
2023-01-30T11:45:42.427Z,72.42
2023-01-30T11:48:33.760Z,71.57
2023-01-30T11:51:10.923Z,72.10
2023-01-30T11:53:49.387Z,72.31
2023-01-30T11:56:23.133Z,72.11
2023-01-30T11:58:59.085Z,71.45
2023-01-30T12:01:28.948Z,70.74
2023-01-30T12:03:57.481Z,71.57
2023-01-30T12:06:30.059Z,71.53
2023-01-30T12:08:57.462Z,70.98
2023-01-30T12:11:28.398Z,71.12
2023-01-30T12:14:25.393Z,71.49
2023-01-30T12:17:00.797Z,71.21
2023-01-30T12:19:39.550Z,70.54
2023-01-30T12:22:16.188Z,71.21
2023-01-30T12:24:49.872Z,71.25
2023-01-30T12:28:10.367Z,71.44
2023-01-30T12:31:02.440Z,71.33
2023-01-30T12:33:33.118Z,71.85
2023-01-30T12:36:04.613Z,72.21
2023-01-30T12:38:46.179Z,71.43
2023-01-30T12:41:34.864Z,70.58
2023-01-30T12:44:29.335Z,70.63
2023-01-30T12:47:02.214Z,71.37
2023-01-30T12:49:40.227Z,69.45
2023-01-30T12:52:36.857Z,70.25
2023-01-30T12:55:22.131Z,69.29
2023-01-30T12:58:24.396Z,69.07
2023-01-30T13:01:13.557Z,69.40
2023-01-30T13:03:58.239Z,69.45
2023-01-30T13:06:52.915Z,70.30
2023-01-30T13:09:47.644Z,69.47
2023-01-30T13:12:34.409Z,69.79
2023-01-30T13:15:19.995Z,71.13
2023-01-30T13:18:15.521Z,69.90
2023-01-30T13:20:49.656Z,70.40
2023-01-30T13:23:22.292Z,70.24
2023-01-30T13:26:08.062Z,71.00
2023-01-30T13:28:40.058Z,69.70
2023-01-30T13:31:12.855Z,70.09
2023-01-30T13:33:43.776Z,69.24
2023-01-30T13:36:19.076Z,66.91
2023-01-30T13:38:58.743Z,67.04
2023-01-30T13:41:30.869Z,67.45
2023-01-30T13:43:58.580Z,67.72
2023-01-30T13:46:28.785Z,68.10
2023-01-30T13:49:00.985Z,69.32
2023-01-30T13:51:36.757Z,68.11
2023-01-30T13:54:13.261Z,68.56
2023-01-30T13:57:06.381Z,69.15
2023-01-30T13:59:54.960Z,68.67
2023-01-30T14:02:23.547Z,69.25
2023-01-30T14:04:54.631Z,69.91
2023-01-30T14:07:43.741Z,70.15
2023-01-30T14:10:10.511Z,70.93
2023-01-30T14:12:40.355Z,70.09
2023-01-30T14:15:16.411Z,71.26
2023-01-30T14:18:05.988Z,70.72
2023-01-30T14:20:46.574Z,71.17
2023-01-30T14:23:46.751Z,72.07
2023-01-30T14:26:13.407Z,71.60
2023-01-30T14:28:46.199Z,71.38
2023-01-30T14:31:46.416Z,71.87
2023-01-30T14:34:38.784Z,71.01
2023-01-30T14:37:25.820Z,71.18
2023-01-30T14:39:55.553Z,71.34
2023-01-30T14:42:27.772Z,71.97
2023-01-30T14:45:03.379Z,71.01
2023-01-30T14:47:35.838Z,71.18
2023-01-30T14:50:23.504Z,70.41
2023-01-30T14:52:56.456Z,71.83
2023-01-30T14:55:29.724Z,71.24
2023-01-30T14:58:01.677Z,72.56
2023-01-30T15:00:32.359Z,72.70
2023-01-30T15:03:09.655Z,72.44
2023-01-30T15:05:44.536Z,71.45
2023-01-30T15:08:22.390Z,71.97
2023-01-30T15:11:26.250Z,71.20
2023-01-30T15:14:22.338Z,72.31
2023-01-30T15:17:19.582Z,72.50
2023-01-30T15:20:16.281Z,73.40
2023-01-30T15:23:11.440Z,74.31
2023-01-30T15:26:18.427Z,74.21
2023-01-30T15:28:54.241Z,74.99
2023-01-30T15:31:23.379Z,75.06
2023-01-30T15:33:52.780Z,76.00
2023-01-30T15:36:38.775Z,76.50
2023-01-30T15:39:18.065Z,77.07
2023-01-30T15:41:44.882Z,76.81
2023-01-30T15:44:16.870Z,75.91
2023-01-30T15:46:55.682Z,76.03
2023-01-30T15:49:44.069Z,76.18
2023-01-30T15:52:19.673Z,75.93
2023-01-30T15:54:54.788Z,74.08
2023-01-30T15:57:29.572Z,74.42
2023-01-30T16:00:09.532Z,74.44
2023-01-30T16:02:43.137Z,75.06
2023-01-30T16:05:22.823Z,75.41
2023-01-30T16:07:53.608Z,75.50
2023-01-30T16:10:33.728Z,77.11
2023-01-30T16:13:03.820Z,76.62
2023-01-30T16:15:46.514Z,76.69
2023-01-30T16:18:22.684Z,77.06
2023-01-30T16:21:01.938Z,76.02
2023-01-30T16:23:38.722Z,75.03
2023-01-30T16:26:09.700Z,75.48
2023-01-30T16:28:36.618Z,74.68
2023-01-30T16:31:07.075Z,75.71
2023-01-30T16:33:37.504Z,76.07
2023-01-30T16:36:30.179Z,76.19
2023-01-30T16:38:57.027Z,76.12
2023-01-30T16:41:42.908Z,76.36
2023-01-30T16:44:24.866Z,76.81
2023-01-30T16:47:22.363Z,77.58
2023-01-30T16:49:49.893Z,79.08
2023-01-30T16:52:45.502Z,79.75
2023-01-30T16:55:22.027Z,80.27
2023-01-30T16:57:58.300Z,81.26
2023-01-30T17:00:34.530Z,81.37
2023-01-30T17:03:12.588Z,81.87
2023-01-30T17:05:42.739Z,82.11
2023-01-30T17:08:30.923Z,82.53
2023-01-30T17:11:01.885Z,82.40
2023-01-30T17:13:41.803Z,83.57
2023-01-30T17:16:31.746Z,83.66
2023-01-30T17:18:58.535Z,84.17
2023-01-30T17:21:38.303Z,84.71
2023-01-30T17:24:05.994Z,84.80
2023-01-30T17:26:35.253Z,85.02
2023-01-30T17:29:02.061Z,85.30
2023-01-30T17:31:28.780Z,86.06
2023-01-30T17:33:58.530Z,86.82
2023-01-30T17:36:28.317Z,86.70
2023-01-30T17:38:58.267Z,86.71
2023-01-30T17:41:33.545Z,87.90
2023-01-30T17:44:00.519Z,87.52
2023-01-30T17:46:35.110Z,88.14
2023-01-30T17:49:02.046Z,88.83
2023-01-30T17:51:28.675Z,88.70
2023-01-30T17:53:55.449Z,88.90
2023-01-30T17:56:26.524Z,88.82
2023-01-30T17:58:53.307Z,88.54
2023-01-30T18:01:20.088Z,88.64
2023-01-30T18:03:47.000Z,88.28
2023-01-30T18:06:19.361Z,87.77
2023-01-30T18:08:58.114Z,87.31
2023-01-30T18:11:36.215Z,87.15
2023-01-30T18:14:04.849Z,87.47
2023-01-30T18:16:35.214Z,87.16
2023-01-30T18:19:06.645Z,87.12
2023-01-30T18:21:42.473Z,87.82
2023-01-30T18:24:10.092Z,87.54
2023-01-30T18:26:37.786Z,87.21
2023-01-30T18:29:04.565Z,87.25
2023-01-30T18:31:35.392Z,87.24
2023-01-30T18:34:07.902Z,87.69
2023-01-30T18:36:35.951Z,87.07
2023-01-30T18:39:03.316Z,87.40
2023-01-30T18:41:30.373Z,87.10
2023-01-30T18:44:02.818Z,87.82
2023-01-30T18:46:29.717Z,87.11
2023-01-30T18:49:02.386Z,86.98
2023-01-30T18:51:34.376Z,87.67
2023-01-30T18:54:06.825Z,88.00
2023-01-30T18:59:18.800Z,87.44
2023-01-30T19:01:46.605Z,87.82
2023-01-30T19:04:13.440Z,88.47
2023-01-30T19:06:43.000Z,87.40
2023-01-30T19:09:14.878Z,86.69
2023-01-30T19:12:00.159Z,87.40
2023-01-30T19:14:26.907Z,86.34
2023-01-30T19:16:54.465Z,86.27
2023-01-30T19:19:21.521Z,86.80
2023-01-30T19:21:49.770Z,86.90
2023-01-30T19:24:16.547Z,87.71
2023-01-30T19:26:43.884Z,87.31
2023-01-30T19:29:10.687Z,87.36
2023-01-30T19:31:37.450Z,87.74
2023-01-30T19:34:06.241Z,88.11
2023-01-30T19:36:34.759Z,88.84
2023-01-30T19:39:03.615Z,88.56
2023-01-30T19:41:33.005Z,89.05
2023-01-30T19:44:00.697Z,88.25
2023-01-30T19:46:29.031Z,88.17
2023-01-30T19:48:55.813Z,88.58
2023-01-30T19:51:25.127Z,88.73
2023-01-30T19:53:54.809Z,89.33
2023-01-30T19:56:24.814Z,88.60
2023-01-30T19:58:53.011Z,88.88
2023-01-30T20:01:22.085Z,89.23
2023-01-30T20:03:49.484Z,89.47
2023-01-30T20:06:19.321Z,90.70
2023-01-30T20:08:49.825Z,89.99
2023-01-30T20:11:18.269Z,89.85
2023-01-30T20:13:45.979Z,90.51
2023-01-30T20:16:16.015Z,91.15
2023-01-30T20:18:42.913Z,91.53
2023-01-30T20:21:17.904Z,91.79
2023-01-30T20:23:45.998Z,92.77
2023-01-30T20:26:16.103Z,92.06
2023-01-30T20:28:44.411Z,92.41
2023-01-30T20:31:18.375Z,92.40
2023-01-30T20:33:45.942Z,93.97
2023-01-30T20:36:22.039Z,94.35
2023-01-30T20:38:49.829Z,94.94
2023-01-30T20:41:20.615Z,94.65
2023-01-30T20:43:50.939Z,96.92
2023-01-30T20:46:22.822Z,95.78
2023-01-30T20:48:52.834Z,97.84
2023-01-30T20:51:23.576Z,97.21
2023-01-30T20:54:01.964Z,97.45
2023-01-30T20:56:38.387Z,97.88
2023-01-30T20:59:07.218Z,99.15
2023-01-30T21:01:34.677Z,98.06
2023-01-30T21:04:07.281Z,98.52
2023-01-30T21:06:37.190Z,97.49
2023-01-30T21:09:18.407Z,99.10
2023-01-30T21:11:45.773Z,98.30
2023-01-30T21:14:13.109Z,99.08
2023-01-30T21:16:40.381Z,99.47
2023-01-30T21:19:11.141Z,98.32
2023-01-30T21:22:07.399Z,99.54
2023-01-30T21:24:34.032Z,100.00
2023-01-30T21:27:01.126Z,99.81
2023-01-30T21:29:29.099Z,99.62
2023-01-30T21:31:57.441Z,100.00
2023-01-30T21:34:24.326Z,100.00
2023-01-30T21:37:09.652Z,100.00
2023-01-30T21:39:54.850Z,100.00
2023-01-30T21:42:40.497Z,100.00
2023-01-30T21:45:07.787Z,100.00
2023-01-30T21:47:34.529Z,100.00
2023-01-30T21:50:01.295Z,100.00
2023-01-30T21:52:27.896Z,100.00
2023-01-30T21:54:54.648Z,100.00
2023-01-30T21:57:21.185Z,100.00
2023-01-30T21:59:47.807Z,100.00
2023-01-30T22:02:14.291Z,100.00
2023-01-30T22:04:40.992Z,100.00
2023-01-30T22:07:07.540Z,100.00
2023-01-30T22:09:34.194Z,100.00
2023-01-30T22:12:00.777Z,100.00
2023-01-30T22:14:27.446Z,100.00
2023-01-30T22:16:54.562Z,100.00
2023-01-30T22:19:21.242Z,100.00
2023-01-30T22:21:47.930Z,100.00
2023-01-30T22:24:14.610Z,100.00
2023-01-30T22:26:41.226Z,100.00
2023-01-30T22:29:07.880Z,100.00
2023-01-30T22:31:37.336Z,100.00
2023-01-30T22:34:05.036Z,100.00
2023-01-30T22:36:33.517Z,100.00
2023-01-30T22:39:01.049Z,100.00
2023-01-30T22:41:30.487Z,100.00
2023-01-30T22:43:59.527Z,100.00
2023-01-30T22:46:31.941Z,100.00
2023-01-30T22:48:59.696Z,100.00
2023-01-30T22:51:28.629Z,100.00
2023-01-30T22:54:01.097Z,100.00
2023-01-30T22:56:35.033Z,100.00
2023-01-30T22:59:01.783Z,100.00
2023-01-30T23:01:34.195Z,100.00
2023-01-30T23:04:11.755Z,100.00
2023-01-30T23:06:40.527Z,100.00
2023-01-30T23:09:09.434Z,100.00
2023-01-30T23:12:16.981Z,100.00
2023-01-30T23:14:44.939Z,100.00
2023-01-30T23:17:30.250Z,100.00
2023-01-30T23:19:57.068Z,100.00
2023-01-30T23:22:24.047Z,100.00
2023-01-30T23:24:51.299Z,100.00
2023-01-30T23:27:18.548Z,100.00
2023-01-30T23:29:45.170Z,100.00
2023-01-30T23:32:11.763Z,100.00
2023-01-30T23:34:38.800Z,100.00
2023-01-30T23:37:05.460Z,100.00
2023-01-30T23:39:32.156Z,100.00
2023-01-30T23:41:58.694Z,100.00
2023-01-30T23:44:25.322Z,100.00
2023-01-30T23:46:52.596Z,100.00
2023-01-30T23:49:19.216Z,100.00
2023-01-30T23:51:45.935Z,100.00
2023-01-30T23:54:13.862Z,100.00
2023-01-30T23:56:43.131Z,100.00
2023-01-30T23:59:10.158Z,100.00
